Time,TemperatureF,DewpointF,PressureIn,WindDirection,WindDirectionDegrees,WindSpeedMPH,WindSpeedGustMPH,Humidity,HourlyPrecipIn,Conditions,Clouds,dailyrainin,SoftwareType,DateUTC
2013-01-25 00:01:00,8.6,4.0,30.50,WNW,284,0.0,0.0,81,0.00,CLR,,0.00,WeatherDisplay:10.37,2013-01-25 05:01:00,
2013-01-25 00:02:00,8.6,4.0,30.50,WNW,284,0.0,0.0,81,0.00,CLR,,0.00,WeatherDisplay:10.37,2013-01-25 05:02:00,
2013-01-25 00:03:00,8.6,4.0,30.50,WNW,284,0.0,0.0,81,0.00,CLR,,0.00,WeatherDisplay:10.37,2013-01-25 05:03:00,
2013-01-25 00:08:00,8.7,4.1,30.50,WNW,284,0.0,0.0,81,0.00,CLR,,0.00,WeatherDisplay:10.37,2013-01-25 05:08:00,
2013-01-25 00:13:00,8.8,4.2,30.50,WNW,284,0.0,0.0,81,0.00,CLR,,0.00,WeatherDisplay:10.37,2013-01-25 05:13:00,
2013-01-25 00:18:00,8.9,4.3,30.50,WNW,284,0.0,0.0,81,0.00,CLR,,0.00,WeatherDisplay:10.37,2013-01-25 05:18:00,
2013-01-25 00:23:00,9.0,4.4,30.50,WNW,284,0.0,0.0,81,0.00,CLR,,0.00,WeatherDisplay:10.37,2013-01-25 05:23:00,
2013-01-25 00:28:00,9.1,4.5,30.49,WNW,284,0.0,0.0,81,0.00,CLR,,0.00,WeatherDisplay:10.37,2013-01-25 05:28:00,
2013-01-25 00:33:00,9.2,4.6,30.49,WNW,284,0.0,0.0,81,0.00,CLR,,0.00,WeatherDisplay:10.37,2013-01-25 05:33:00,
2013-01-25 00:38:00,9.2,4.6,30.49,WNW,284,1.1,0.0,81,0.00,CLR,,0.00,WeatherDisplay:10.37,2013-01-25 05:38:00,
2013-01-25 00:43:00,9.3,4.6,30.48,WNW,284,0.0,0.0,81,0.00,CLR,,0.00,WeatherDisplay:10.37,2013-01-25 05:43:00,
2013-01-25 00:48:00,9.3,4.6,30.48,WNW,284,0.0,0.0,81,0.00,CLR,,0.00,WeatherDisplay:10.37,2013-01-25 05:48:00,
2013-01-25 00:53:00,9.3,4.6,30.48,WNW,284,0.0,0.0,81,0.00,CLR,,0.00,WeatherDisplay:10.37,2013-01-25 05:53:00,
2013-01-25 00:58:00,9.4,4.7,30.48,WNW,284,0.0,0.0,81,0.00,CLR,,0.00,WeatherDisplay:10.37,2013-01-25 05:58:00,
2013-01-25 01:03:00,9.4,4.7,30.47,WNW,284,0.0,0.0,81,0.00,CLR,,0.00,WeatherDisplay:10.37,2013-01-25 06:03:00,
2013-01-25 01:08:00,9.5,4.8,30.48,WNW,284,0.0,0.0,81,0.00,CLR,,0.00,WeatherDisplay:10.37,2013-01-25 06:08:00,
2013-01-25 01:13:00,9.5,4.8,30.47,WNW,284,0.0,0.0,81,0.00,CLR,,0.00,WeatherDisplay:10.37,2013-01-25 06:13:00,
2013-01-25 01:18:00,9.6,4.9,30.47,WNW,284,0.0,0.0,81,0.00,CLR,,0.00,WeatherDisplay:10.37,2013-01-25 06:18:00,
2013-01-25 01:23:00,9.6,4.9,30.47,WNW,284,0.0,0.0,81,0.00,CLR,,0.00,WeatherDisplay:10.37,2013-01-25 06:23:00,
2013-01-25 01:28:00,9.7,5.0,30.46,WNW,284,1.1,0.0,81,0.00,CLR,,0.00,WeatherDisplay:10.37,2013-01-25 06:28:00,
2013-01-25 01:33:00,9.7,5.0,30.47,WNW,284,0.0,0.0,81,0.00,CLR,,0.00,WeatherDisplay:10.37,2013-01-25 06:33:00,
2013-01-25 01:38:00,9.8,5.1,30.46,WNW,284,0.0,0.0,81,0.00,CLR,,0.00,WeatherDisplay:10.37,2013-01-25 06:38:00,
2013-01-25 01:43:00,9.8,5.1,30.46,WNW,284,0.0,0.0,81,0.00,CLR,,0.00,WeatherDisplay:10.37,2013-01-25 06:43:00,
2013-01-25 01:48:00,9.9,5.2,30.46,WNW,284,0.0,0.0,81,0.00,CLR,,0.00,WeatherDisplay:10.37,2013-01-25 06:48:00,
2013-01-25 01:53:00,9.9,5.2,30.45,WNW,284,0.0,0.0,81,0.00,CLR,,0.00,WeatherDisplay:10.37,2013-01-25 06:53:00,
2013-01-25 01:58:00,9.9,5.2,30.44,WNW,284,1.1,0.0,81,0.00,CLR,,0.00,WeatherDisplay:10.37,2013-01-25 06:58:00,
2013-01-25 02:03:00,9.9,5.5,30.44,WNW,284,0.0,0.0,82,0.00,CLR,,0.00,WeatherDisplay:10.37,2013-01-25 07:03:00,
2013-01-25 02:08:00,9.9,5.2,30.44,WNW,284,0.0,0.0,81,0.00,CLR,,0.00,WeatherDisplay:10.37,2013-01-25 07:08:00,
2013-01-25 02:13:00,9.9,5.2,30.43,WNW,284,2.3,2.3,81,0.00,CLR,,0.00,WeatherDisplay:10.37,2013-01-25 07:13:00,
2013-01-25 02:18:00,9.9,5.2,30.43,WNW,284,0.0,0.0,81,0.00,CLR,,0.00,WeatherDisplay:10.37,2013-01-25 07:18:00,
2013-01-25 02:23:00,9.9,5.2,30.43,WNW,283,0.0,0.0,81,0.00,CLR,,0.00,WeatherDisplay:10.37,2013-01-25 07:23:00,
2013-01-25 02:28:00,9.9,5.2,30.42,WNW,283,2.3,2.3,81,0.00,CLR,,0.00,WeatherDisplay:10.37,2013-01-25 07:28:00,
2013-01-25 02:33:00,9.9,5.2,30.42,WNW,283,1.1,0.0,81,0.00,CLR,,0.00,WeatherDisplay:10.37,2013-01-25 07:33:00,
2013-01-25 02:38:00,9.9,5.2,30.42,WNW,282,1.1,1.1,81,0.00,CLR,,0.00,WeatherDisplay:10.37,2013-01-25 07:38:00,
2013-01-25 02:43:00,9.9,5.2,30.42,West,281,0.0,0.0,81,0.00,CLR,,0.00,WeatherDisplay:10.37,2013-01-25 07:43:00,
2013-01-25 02:49:00,10.0,5.3,30.42,WNW,282,0.0,0.0,81,0.00,CLR,,0.00,WeatherDisplay:10.37,2013-01-25 07:49:00,
2013-01-25 02:54:00,10.1,5.4,30.42,West,281,0.0,0.0,81,0.00,CLR,,0.00,WeatherDisplay:10.37,2013-01-25 07:54:00,
2013-01-25 02:59:00,10.1,5.2,30.42,West,281,0.0,0.0,80,0.00,CLR,,0.00,WeatherDisplay:10.37,2013-01-25 07:59:00,
2013-01-25 03:04:00,10.2,5.3,30.41,WNW,282,2.3,0.0,80,0.00,CLR,,0.00,WeatherDisplay:10.37,2013-01-25 08:04:00,
2013-01-25 03:09:00,10.3,5.1,30.41,WNW,282,2.3,2.3,79,0.00,CLR,,0.00,WeatherDisplay:10.37,2013-01-25 08:09:00,
2013-01-25 03:14:00,10.3,5.1,30.41,West,281,0.0,0.0,79,0.00,CLR,,0.00,WeatherDisplay:10.37,2013-01-25 08:14:00,
2013-01-25 03:19:00,10.3,5.1,30.40,West,281,1.1,1.1,79,0.00,CLR,,0.00,WeatherDisplay:10.37,2013-01-25 08:19:00,
2013-01-25 03:24:00,10.4,5.2,30.41,WNW,282,0.0,0.0,79,0.00,CLR,,0.00,WeatherDisplay:10.37,2013-01-25 08:24:00,
2013-01-25 03:29:00,10.3,4.8,30.40,WNW,282,0.0,0.0,78,0.00,CLR,,0.00,WeatherDisplay:10.37,2013-01-25 08:29:00,
2013-01-25 03:34:00,10.4,4.9,30.40,West,281,2.0,2.0,78,0.00,CLR,,0.00,WeatherDisplay:10.37,2013-01-25 08:34:00,
2013-01-25 03:39:00,10.4,4.6,30.40,West,281,0.0,0.0,77,0.00,CLR,,0.00,WeatherDisplay:10.37,2013-01-25 08:39:00,
2013-01-25 03:44:00,10.4,4.6,30.39,West,281,0.0,0.0,77,0.00,CLR,,0.00,WeatherDisplay:10.37,2013-01-25 08:44:00,
2013-01-25 03:49:00,10.4,4.6,30.39,West,281,0.0,0.0,77,0.00,CLR,,0.00,WeatherDisplay:10.37,2013-01-25 08:49:00,
2013-01-25 03:54:00,10.4,4.6,30.39,West,277,3.5,3.5,77,0.00,CLR,,0.00,WeatherDisplay:10.37,2013-01-25 08:54:00,
2013-01-25 03:59:00,10.4,4.3,30.39,West,277,0.0,0.0,76,0.00,CLR,,0.00,WeatherDisplay:10.37,2013-01-25 08:59:00,
2013-01-25 04:04:00,10.4,4.6,30.39,West,277,0.0,0.4,77,0.00,CLR,,0.00,WeatherDisplay:10.37,2013-01-25 09:04:00,
2013-01-25 04:09:00,10.5,4.7,30.39,West,276,3.5,3.5,77,0.00,CLR,,0.00,WeatherDisplay:10.37,2013-01-25 09:09:00,
2013-01-25 04:14:00,10.5,4.4,30.38,West,273,0.0,0.0,76,0.00,CLR,,0.00,WeatherDisplay:10.37,2013-01-25 09:14:00,
2013-01-25 04:19:00,10.5,4.4,30.38,West,274,0.0,0.0,76,0.00,CLR,,0.00,WeatherDisplay:10.37,2013-01-25 09:19:00,
2013-01-25 04:24:00,10.5,4.4,30.37,West,274,0.0,0.0,76,0.00,CLR,,0.00,WeatherDisplay:10.37,2013-01-25 09:24:00,
2013-01-25 04:29:00,10.5,4.1,30.37,West,273,1.1,1.1,75,0.00,CLR,,0.00,WeatherDisplay:10.37,2013-01-25 09:29:00,
2013-01-25 04:34:00,10.5,4.1,30.36,West,274,2.3,2.3,75,0.00,CLR,,0.00,WeatherDisplay:10.37,2013-01-25 09:34:00,
2013-01-25 04:39:00,10.5,4.1,30.35,West,274,1.1,0.0,75,0.00,CLR,,0.00,WeatherDisplay:10.37,2013-01-25 09:39:00,
2013-01-25 04:44:00,10.5,4.1,30.35,West,274,0.0,0.0,75,0.00,CLR,,0.00,WeatherDisplay:10.37,2013-01-25 09:44:00,
2013-01-25 04:49:00,10.5,4.1,30.35,West,274,0.0,0.0,75,0.00,CLR,,0.00,WeatherDisplay:10.37,2013-01-25 09:49:00,
2013-01-25 04:54:00,10.5,4.1,30.34,West,273,1.1,1.1,75,0.00,CLR,,0.00,WeatherDisplay:10.37,2013-01-25 09:54:00,
2013-01-25 04:59:00,10.5,4.1,30.34,West,272,3.5,3.5,75,0.00,CLR,,0.00,WeatherDisplay:10.37,2013-01-25 09:59:00,
2013-01-25 05:04:00,10.5,4.1,30.34,West,265,0.0,0.0,75,0.00,CLR,,0.00,WeatherDisplay:10.37,2013-01-25 10:04:00,
2013-01-25 05:09:00,10.5,4.1,30.34,WSW,254,2.0,2.0,75,0.00,CLR,,0.00,WeatherDisplay:10.37,2013-01-25 10:09:00,
2013-01-25 05:14:00,10.6,4.2,30.34,WSW,251,2.3,0.0,75,0.00,CLR,,0.00,WeatherDisplay:10.37,2013-01-25 10:14:00,
2013-01-25 05:19:00,10.7,4.3,30.33,WSW,251,0.0,0.0,75,0.00,CLR,,0.00,WeatherDisplay:10.37,2013-01-25 10:19:00,
2013-01-25 05:24:00,10.7,4.3,30.33,WSW,250,0.0,0.0,75,0.00,CLR,,0.00,WeatherDisplay:10.37,2013-01-25 10:24:00,
2013-01-25 05:29:00,10.7,4.3,30.33,WSW,250,1.1,0.0,75,0.00,CLR,,0.00,WeatherDisplay:10.37,2013-01-25 10:29:00,
2013-01-25 05:34:00,10.7,4.3,30.32,WSW,251,0.0,0.0,75,0.00,CLR,,0.00,WeatherDisplay:10.37,2013-01-25 10:34:00,
2013-01-25 05:39:00,10.7,4.6,30.32,WSW,251,0.0,0.0,76,0.00,CLR,,0.00,WeatherDisplay:10.37,2013-01-25 10:39:00,
2013-01-25 05:44:00,10.6,4.8,30.32,WSW,250,2.3,2.3,77,0.00,CLR,,0.00,WeatherDisplay:10.37,2013-01-25 10:44:00,
2013-01-25 05:49:00,10.5,5.0,30.31,WSW,250,0.0,0.0,78,0.00,CLR,,0.00,WeatherDisplay:10.37,2013-01-25 10:49:00,
2013-01-25 05:54:00,10.4,5.2,30.31,WSW,250,0.0,0.0,79,0.00,CLR,,0.00,WeatherDisplay:10.37,2013-01-25 10:54:00,
2013-01-25 05:59:00,10.3,5.4,30.31,WSW,250,0.0,0.0,80,0.00,CLR,,0.00,WeatherDisplay:10.37,2013-01-25 10:59:00,
2013-01-25 06:04:00,10.2,5.5,30.31,WSW,250,0.0,0.0,81,0.00,CLR,,0.00,WeatherDisplay:10.37,2013-01-25 11:04:00,
2013-01-25 06:09:00,10.2,5.8,30.30,WSW,250,0.0,0.0,82,0.00,CLR,,0.00,WeatherDisplay:10.37,2013-01-25 11:09:00,
2013-01-25 06:14:00,10.1,6.0,30.30,WSW,250,0.0,0.0,83,0.00,CLR,,0.00,WeatherDisplay:10.37,2013-01-25 11:14:00,
2013-01-25 06:19:00,10.1,6.0,30.30,WSW,250,0.0,0.0,83,0.00,CLR,,0.00,WeatherDisplay:10.37,2013-01-25 11:19:00,
2013-01-25 06:24:00,10.1,6.2,30.30,WSW,250,0.0,0.0,84,0.00,CLR,,0.00,WeatherDisplay:10.37,2013-01-25 11:24:00,
2013-01-25 06:29:00,10.1,6.5,30.29,WSW,250,2.3,2.3,85,0.00,CLR,,0.00,WeatherDisplay:10.37,2013-01-25 11:29:00,
2013-01-25 06:34:00,10.0,6.4,30.28,WSW,250,1.1,1.1,85,0.00,CLR,,0.00,WeatherDisplay:10.37,2013-01-25 11:34:00,
2013-01-25 06:39:00,10.1,6.5,30.28,WSW,250,1.0,0.0,85,0.00,CLR,,0.00,WeatherDisplay:10.37,2013-01-25 11:39:00,
2013-01-25 06:44:00,10.1,6.5,30.27,WSW,249,0.0,0.0,85,0.00,CLR,,0.00,WeatherDisplay:10.37,2013-01-25 11:44:00,
2013-01-25 06:49:00,10.1,6.7,30.27,WSW,244,2.3,2.3,86,0.00,CLR,,0.00,WeatherDisplay:10.37,2013-01-25 11:49:00,
2013-01-25 06:54:00,10.1,6.7,30.27,WSW,243,2.3,2.3,86,0.00,CLR,,0.00,WeatherDisplay:10.37,2013-01-25 11:54:00,
2013-01-25 06:59:00,10.2,6.8,30.27,WSW,239,1.1,1.1,86,0.00,CLR,,0.00,WeatherDisplay:10.37,2013-01-25 11:59:00,
2013-01-25 07:04:00,10.2,6.8,30.27,WSW,238,1.1,1.1,86,0.00,CLR,,0.00,WeatherDisplay:10.37,2013-01-25 12:04:00,
2013-01-25 07:09:00,10.2,6.8,30.26,WSW,239,3.5,3.5,86,0.00,CLR,,0.00,WeatherDisplay:10.37,2013-01-25 12:09:00,
2013-01-25 07:14:00,10.3,6.9,30.26,SW,226,3.5,3.5,86,0.00,CLR,,0.00,WeatherDisplay:10.37,2013-01-25 12:14:00,
2013-01-25 07:19:00,10.3,6.9,30.26,SW,226,0.0,0.0,86,0.00,CLR,,0.00,WeatherDisplay:10.37,2013-01-25 12:19:00,
2013-01-25 07:24:00,10.4,7.0,30.25,SW,226,2.3,2.3,86,0.00,CLR,,0.00,WeatherDisplay:10.37,2013-01-25 12:24:00,
2013-01-25 07:29:00,10.4,7.0,30.25,SW,226,2.3,2.3,86,0.00,CLR,,0.00,WeatherDisplay:10.37,2013-01-25 12:29:00,
2013-01-25 07:34:00,10.4,7.0,30.25,SW,226,0.0,0.0,86,0.00,CLR,,0.00,WeatherDisplay:10.37,2013-01-25 12:34:00,
2013-01-25 07:39:00,10.5,7.1,30.25,SW,226,1.1,1.1,86,0.00,CLR,,0.00,WeatherDisplay:10.37,2013-01-25 12:39:00,
2013-01-25 07:44:00,10.5,7.1,30.24,SW,225,0.0,0.0,86,0.00,CLR,,0.00,WeatherDisplay:10.37,2013-01-25 12:44:00,
2013-01-25 07:49:00,10.6,7.2,30.24,SW,224,0.0,0.0,86,0.00,CLR,,0.00,WeatherDisplay:10.37,2013-01-25 12:49:00,
2013-01-25 07:54:00,10.6,7.2,30.24,SW,224,0.0,0.0,86,0.00,CLR,,0.00,WeatherDisplay:10.37,2013-01-25 12:54:00,
2013-01-25 07:59:00,10.6,7.5,30.23,SW,223,0.0,0.0,87,0.00,CLR,,0.00,WeatherDisplay:10.37,2013-01-25 12:59:00,
2013-01-25 08:04:00,10.7,7.6,30.23,SW,224,0.0,0.0,87,0.00,CLR,,0.00,WeatherDisplay:10.37,2013-01-25 13:04:00,
2013-01-25 08:09:00,10.7,7.6,30.23,SW,223,1.1,0.0,87,0.00,CLR,,0.00,WeatherDisplay:10.37,2013-01-25 13:09:00,
2013-01-25 08:14:00,10.8,7.7,30.23,SW,222,0.0,0.0,87,0.00,CLR,,0.00,WeatherDisplay:10.37,2013-01-25 13:14:00,
2013-01-25 08:19:00,10.9,7.8,30.23,SW,222,2.3,2.3,87,0.00,CLR,,0.00,WeatherDisplay:10.37,2013-01-25 13:19:00,
2013-01-25 08:24:00,10.9,7.8,30.23,SW,222,0.0,0.0,87,0.00,CLR,,0.00,WeatherDisplay:10.37,2013-01-25 13:24:00,
2013-01-25 08:29:00,11.0,7.9,30.23,SW,221,3.5,3.5,87,0.00,CLR,,0.00,WeatherDisplay:10.37,2013-01-25 13:29:00,
2013-01-25 08:34:00,11.1,8.0,30.23,SW,219,2.3,2.3,87,0.00,CLR,,0.00,WeatherDisplay:10.37,2013-01-25 13:34:00,
2013-01-25 08:39:00,11.2,8.1,30.23,SW,219,0.0,0.0,87,0.00,CLR,,0.00,WeatherDisplay:10.37,2013-01-25 13:39:00,
2013-01-25 08:44:00,11.3,8.2,30.22,SW,217,3.5,3.5,87,0.00,CLR,,0.00,WeatherDisplay:10.37,2013-01-25 13:44:00,
2013-01-25 08:49:00,11.3,8.2,30.22,SW,217,1.1,0.0,87,0.00,CLR,,0.00,WeatherDisplay:10.37,2013-01-25 13:49:00,
2013-01-25 08:54:00,11.5,8.6,30.23,SW,215,0.0,0.0,88,0.00,CLR,,0.00,WeatherDisplay:10.37,2013-01-25 13:54:00,
2013-01-25 08:59:00,11.5,8.4,30.22,SW,214,0.0,0.0,87,0.00,CLR,,0.00,WeatherDisplay:10.37,2013-01-25 13:59:00,
2013-01-25 09:04:00,11.6,8.5,30.21,SW,214,0.0,0.0,87,0.00,CLR,,0.00,WeatherDisplay:10.37,2013-01-25 14:04:00,
2013-01-25 09:09:00,11.7,8.6,30.21,SW,214,1.1,1.1,87,0.00,CLR,,0.00,WeatherDisplay:10.37,2013-01-25 14:09:00,
2013-01-25 09:14:00,11.9,8.8,30.21,SW,214,0.0,0.0,87,0.00,CLR,,0.00,WeatherDisplay:10.37,2013-01-25 14:14:00,
2013-01-25 09:19:00,12.0,8.9,30.21,SSW,213,0.0,0.0,87,0.00,CLR,,0.00,WeatherDisplay:10.37,2013-01-25 14:19:00,
2013-01-25 09:24:00,12.1,9.0,30.21,SSW,212,3.5,3.5,87,0.00,CLR,,0.00,WeatherDisplay:10.37,2013-01-25 14:24:00,
2013-01-25 09:29:00,12.1,9.2,30.20,SSW,211,0.0,0.0,88,0.00,CLR,,0.00,WeatherDisplay:10.37,2013-01-25 14:29:00,
2013-01-25 09:34:00,12.2,9.3,30.20,SSW,205,4.0,4.0,88,0.00,CLR,,0.00,WeatherDisplay:10.37,2013-01-25 14:34:00,
2013-01-25 09:39:00,12.2,9.1,30.19,SSW,196,1.1,1.1,87,0.00,CLR,,0.00,WeatherDisplay:10.37,2013-01-25 14:39:00,
2013-01-25 09:44:00,12.3,9.2,30.20,SSW,197,3.5,3.5,87,0.00,CLR,,0.00,WeatherDisplay:10.37,2013-01-25 14:44:00,
2013-01-25 09:49:00,12.4,9.5,30.19,South,190,1.1,0.0,88,0.00,CLR,,0.00,WeatherDisplay:10.37,2013-01-25 14:49:00,
2013-01-25 09:54:00,12.5,9.6,30.19,South,191,3.5,3.5,88,0.00,CLR,,0.00,WeatherDisplay:10.37,2013-01-25 14:54:00,
2013-01-25 09:59:00,12.6,9.7,30.19,South,190,2.3,2.3,88,0.00,CLR,,0.00,WeatherDisplay:10.37,2013-01-25 14:59:00,
2013-01-25 10:04:00,12.7,9.8,30.18,South,179,2.3,2.3,88,0.00,CLR,,0.00,WeatherDisplay:10.37,2013-01-25 15:04:00,
2013-01-25 10:09:00,12.8,9.9,30.18,South,179,0.0,0.0,88,0.00,CLR,,0.00,WeatherDisplay:10.37,2013-01-25 15:09:00,
2013-01-25 10:14:00,12.9,10.0,30.18,South,178,4.6,4.6,88,0.00,CLR,,0.00,WeatherDisplay:10.37,2013-01-25 15:14:00,
2013-01-25 10:19:00,13.0,10.1,30.17,SSE,162,3.5,3.5,88,0.00,CLR,,0.00,WeatherDisplay:10.37,2013-01-25 15:19:00,
2013-01-25 10:24:00,13.1,10.2,30.17,South,186,3.5,3.5,88,0.00,CLR,,0.00,WeatherDisplay:10.37,2013-01-25 15:24:00,
2013-01-25 10:29:00,13.2,10.3,30.17,South,178,3.5,3.5,88,0.00,CLR,,0.00,WeatherDisplay:10.37,2013-01-25 15:29:00,
2013-01-25 10:34:00,13.3,10.4,30.16,SSW,196,1.1,1.1,88,0.00,CLR,,0.00,WeatherDisplay:10.37,2013-01-25 15:34:00,
2013-01-25 10:39:00,13.5,10.6,30.17,South,184,3.5,3.5,88,0.00,CLR,,0.00,WeatherDisplay:10.37,2013-01-25 15:39:00,
2013-01-25 10:44:00,13.9,11.0,30.17,South,186,2.3,2.3,88,0.00,CLR,,0.00,WeatherDisplay:10.37,2013-01-25 15:44:00,
2013-01-25 10:49:00,14.3,11.4,30.16,South,187,4.6,4.6,88,0.00,CLR,,0.00,WeatherDisplay:10.37,2013-01-25 15:49:00,
2013-01-25 10:54:00,14.5,11.3,30.16,SSW,194,0.0,0.0,87,0.00,CLR,,0.00,WeatherDisplay:10.37,2013-01-25 15:54:00,
2013-01-25 10:59:00,14.8,11.6,30.16,SSW,196,1.1,1.1,87,0.00,CLR,,0.00,WeatherDisplay:10.37,2013-01-25 15:59:00,
2013-01-25 11:04:00,15.1,11.9,30.16,SSW,199,3.5,3.5,87,0.00,CLR,,0.00,WeatherDisplay:10.37,2013-01-25 16:04:00,
2013-01-25 11:09:00,15.2,11.8,30.16,SSW,194,2.3,2.3,86,0.00,CLR,,0.00,WeatherDisplay:10.37,2013-01-25 16:09:00,
2013-01-25 11:14:00,15.3,11.9,30.16,SSW,201,3.5,3.5,86,0.00,CLR,,0.00,WeatherDisplay:10.37,2013-01-25 16:14:00,
2013-01-25 11:19:00,15.2,11.8,30.16,SSW,209,3.5,3.5,86,0.00,CLR,,0.00,WeatherDisplay:10.37,2013-01-25 16:19:00,
2013-01-25 11:24:00,15.3,11.9,30.15,SW,223,3.5,3.5,86,0.00,CLR,,0.00,WeatherDisplay:10.37,2013-01-25 16:24:00,
2013-01-25 11:29:00,15.5,12.1,30.15,SW,217,6.9,6.9,86,0.00,CLR,,0.00,WeatherDisplay:10.37,2013-01-25 16:29:00,
2013-01-25 11:34:00,15.6,12.2,30.15,South,173,7.0,7.0,86,0.00,CLR,,0.00,WeatherDisplay:10.37,2013-01-25 16:34:00,
2013-01-25 11:39:00,15.8,12.4,30.14,South,188,3.5,3.5,86,0.00,CLR,,0.00,WeatherDisplay:10.37,2013-01-25 16:39:00,
2013-01-25 11:44:00,16.0,12.6,30.14,South,186,3.5,3.5,86,0.00,CLR,,0.00,WeatherDisplay:10.37,2013-01-25 16:44:00,
2013-01-25 11:49:00,16.2,12.7,30.13,SSW,192,3.5,3.5,86,0.00,CLR,,0.00,WeatherDisplay:10.37,2013-01-25 16:49:00,
2013-01-25 11:54:00,16.5,13.3,30.13,SSW,199,0.0,0.0,87,0.00,CLR,,0.00,WeatherDisplay:10.37,2013-01-25 16:54:00,
2013-01-25 11:59:00,16.8,13.3,30.12,SW,232,5.8,5.8,86,0.00,CLR,,0.00,WeatherDisplay:10.37,2013-01-25 16:59:00,
2013-01-25 12:04:00,16.8,13.3,30.12,SW,223,5.8,5.8,86,0.00,CLR,,0.00,WeatherDisplay:10.37,2013-01-25 17:04:00,
2013-01-25 12:09:00,16.8,13.3,30.11,SW,217,3.0,3.0,86,0.00,CLR,,0.00,WeatherDisplay:10.37,2013-01-25 17:09:00,
2013-01-25 12:14:00,16.9,13.4,30.11,SSW,198,3.5,3.5,86,0.00,CLR,,0.00,WeatherDisplay:10.37,2013-01-25 17:14:00,
2013-01-25 12:19:00,17.0,13.5,30.11,SW,221,0.0,0.0,86,0.00,CLR,,0.00,WeatherDisplay:10.37,2013-01-25 17:19:00,
2013-01-25 12:24:00,17.0,13.5,30.11,SSW,196,3.5,3.5,86,0.00,CLR,,0.00,WeatherDisplay:10.37,2013-01-25 17:24:00,
2013-01-25 12:29:00,17.2,13.7,30.10,SW,230,3.5,3.5,86,0.00,CLR,,0.00,WeatherDisplay:10.37,2013-01-25 17:29:00,
2013-01-25 12:34:00,17.2,13.5,30.10,SW,236,5.8,5.8,85,0.00,CLR,,0.00,WeatherDisplay:10.37,2013-01-25 17:34:00,
2013-01-25 12:39:00,17.4,13.9,30.09,SSW,200,1.1,1.1,86,0.00,CLR,,0.00,WeatherDisplay:10.37,2013-01-25 17:39:00,
2013-01-25 12:44:00,17.8,14.3,30.09,SSW,206,0.0,0.0,86,0.00,CLR,,0.00,WeatherDisplay:10.37,2013-01-25 17:44:00,
2013-01-25 12:49:00,17.9,14.2,30.09,SW,223,3.5,3.5,85,0.00,CLR,,0.00,WeatherDisplay:10.37,2013-01-25 17:49:00,
2013-01-25 12:54:00,18.1,14.4,30.09,SW,218,3.5,3.5,85,0.00,CLR,,0.00,WeatherDisplay:10.37,2013-01-25 17:54:00,
2013-01-25 12:59:00,18.2,14.2,30.08,West,277,9.2,9.2,84,0.00,CLR,,0.00,WeatherDisplay:10.37,2013-01-25 17:59:00,
2013-01-25 13:04:00,18.0,14.0,30.08,SSW,202,3.5,3.5,84,0.00,CLR,,0.00,WeatherDisplay:10.37,2013-01-25 18:04:00,
2013-01-25 13:10:00,18.0,14.0,30.08,SSW,209,4.6,4.6,84,0.00,CLR,,0.00,WeatherDisplay:10.37,2013-01-25 18:10:00,
2013-01-25 13:15:00,18.0,13.4,30.08,South,190,4.0,4.0,82,0.00,CLR,,0.00,WeatherDisplay:10.37,2013-01-25 18:15:00,
2013-01-25 13:20:00,18.2,13.6,30.07,SSW,196,5.8,5.8,82,0.00,CLR,,0.00,WeatherDisplay:10.37,2013-01-25 18:20:00,
2013-01-25 13:25:00,18.5,13.9,30.06,WSW,244,5.8,5.8,82,0.00,CLR,,0.00,WeatherDisplay:10.37,2013-01-25 18:25:00,
2013-01-25 13:30:00,18.6,13.7,30.06,SSW,208,4.6,4.6,81,0.00,CLR,,0.00,WeatherDisplay:10.37,2013-01-25 18:30:00,
2013-01-25 13:35:00,18.7,13.8,30.05,South,190,6.9,6.9,81,0.00,CLR,,0.00,WeatherDisplay:10.37,2013-01-25 18:35:00,
2013-01-25 13:40:00,18.8,13.9,30.04,SSW,197,5.8,5.8,81,0.00,CLR,,0.00,WeatherDisplay:10.37,2013-01-25 18:40:00,
2013-01-25 13:45:00,19.0,13.8,30.05,WSW,238,6.9,6.9,80,0.00,CLR,,0.00,WeatherDisplay:10.37,2013-01-25 18:45:00,
2013-01-25 13:50:00,18.8,13.7,30.04,SSW,208,5.0,5.0,80,0.00,CLR,,0.00,WeatherDisplay:10.37,2013-01-25 18:50:00,
2013-01-25 13:55:00,18.6,13.2,30.04,SSW,211,5.8,5.8,79,0.00,CLR,,0.00,WeatherDisplay:10.37,2013-01-25 18:55:00,
2013-01-25 14:00:00,18.6,13.2,30.04,SW,234,9.2,9.2,79,0.00,CLR,,0.00,WeatherDisplay:10.37,2013-01-25 19:00:00,
2013-01-25 14:05:00,18.8,13.4,30.03,WSW,256,2.3,2.3,79,0.00,CLR,,0.00,WeatherDisplay:10.37,2013-01-25 19:05:00,
2013-01-25 14:10:00,18.9,13.5,30.03,SSW,206,4.6,4.6,79,0.00,CLR,,0.00,WeatherDisplay:10.37,2013-01-25 19:10:00,
2013-01-25 14:15:00,18.9,13.5,30.03,WSW,237,6.9,6.9,79,0.00,CLR,,0.00,WeatherDisplay:10.37,2013-01-25 19:15:00,
2013-01-25 14:20:00,18.8,13.4,30.02,WSW,253,10.4,10.4,79,0.00,CLR,,0.00,WeatherDisplay:10.37,2013-01-25 19:20:00,
2013-01-25 14:25:00,18.8,13.7,30.02,WSW,242,5.8,5.8,80,0.00,CLR,,0.00,WeatherDisplay:10.37,2013-01-25 19:25:00,
2013-01-25 14:30:00,19.0,14.1,30.02,SW,223,0.0,0.0,81,0.00,CLR,,0.00,WeatherDisplay:10.37,2013-01-25 19:30:00,
2013-01-25 14:35:00,19.3,14.4,30.02,South,188,3.5,3.5,81,0.00,CLR,,0.00,WeatherDisplay:10.37,2013-01-25 19:35:00,
2013-01-25 14:40:00,19.0,14.4,30.02,SW,221,0.0,0.0,82,0.00,CLR,,0.00,WeatherDisplay:10.37,2013-01-25 19:40:00,
2013-01-25 14:45:00,18.9,14.6,30.01,SSW,200,5.8,5.8,83,0.00,CLR,,0.00,WeatherDisplay:10.37,2013-01-25 19:45:00,
2013-01-25 14:50:00,18.8,14.8,30.01,SW,222,9.2,9.2,84,0.00,CLR,,0.00,WeatherDisplay:10.37,2013-01-25 19:50:00,
2013-01-25 14:55:00,18.7,14.4,30.00,SW,215,3.5,3.5,83,0.00,CLR,,0.00,WeatherDisplay:10.37,2013-01-25 19:55:00,
2013-01-25 15:00:00,18.8,14.5,30.00,SSW,209,3.5,3.5,83,0.00,CLR,,0.00,WeatherDisplay:10.37,2013-01-25 20:00:00,
2013-01-25 15:05:00,19.0,15.0,30.00,SW,229,0.0,0.0,84,0.00,CLR,,0.00,WeatherDisplay:10.37,2013-01-25 20:05:00,
2013-01-25 15:10:00,19.3,15.3,30.00,South,187,3.5,3.5,84,0.00,CLR,,0.00,WeatherDisplay:10.37,2013-01-25 20:10:00,
2013-01-25 15:15:00,19.2,14.9,30.00,SSW,209,1.1,1.1,83,0.00,CLR,,0.00,WeatherDisplay:10.37,2013-01-25 20:15:00,
2013-01-25 15:20:00,19.2,14.9,30.00,SSW,202,6.9,6.9,83,0.00,CLR,,0.00,WeatherDisplay:10.37,2013-01-25 20:20:00,
2013-01-25 15:25:00,19.0,14.4,30.00,SSW,212,4.6,4.6,82,0.00,CLR,,0.00,WeatherDisplay:10.37,2013-01-25 20:25:00,
2013-01-25 15:30:00,19.2,14.9,30.00,WSW,244,4.6,4.6,83,0.00,CLR,,0.00,WeatherDisplay:10.37,2013-01-25 20:30:00,
2013-01-25 15:35:00,19.3,14.7,30.00,SSW,203,2.3,2.3,82,0.00,CLR,,0.00,WeatherDisplay:10.37,2013-01-25 20:35:00,
2013-01-25 15:40:00,19.3,14.7,30.00,SSW,199,0.0,0.0,82,0.00,CLR,,0.00,WeatherDisplay:10.37,2013-01-25 20:40:00,
2013-01-25 15:45:00,19.3,15.0,30.00,SSW,192,4.0,4.0,83,0.00,CLR,,0.00,WeatherDisplay:10.37,2013-01-25 20:45:00,
2013-01-25 15:50:00,19.2,14.9,30.00,SSW,201,3.5,3.5,83,0.00,CLR,,0.00,WeatherDisplay:10.37,2013-01-25 20:50:00,
2013-01-25 15:55:00,19.3,15.3,30.00,SSW,200,1.1,0.0,84,0.00,CLR,,0.00,WeatherDisplay:10.37,2013-01-25 20:55:00,
2013-01-25 16:00:00,19.3,15.3,30.00,SW,215,4.0,4.0,84,0.00,CLR,,0.00,WeatherDisplay:10.37,2013-01-25 21:00:00,
2013-01-25 16:05:00,19.3,15.5,30.00,SSW,213,3.5,3.5,85,0.00,CLR,,0.00,WeatherDisplay:10.37,2013-01-25 21:05:00,
2013-01-25 16:10:00,19.3,15.5,30.00,SSW,213,3.5,3.5,85,0.00,CLR,,0.00,WeatherDisplay:10.37,2013-01-25 21:10:00,
2013-01-25 16:15:00,19.2,15.2,30.00,South,190,6.9,6.9,84,0.00,CLR,,0.00,WeatherDisplay:10.37,2013-01-25 21:15:00,
2013-01-25 16:20:00,19.2,15.2,30.00,SSW,196,3.5,3.5,84,0.00,CLR,,0.00,WeatherDisplay:10.37,2013-01-25 21:20:00,
2013-01-25 16:25:00,19.3,15.3,30.00,SSW,198,3.5,3.5,84,0.00,CLR,,0.00,WeatherDisplay:10.37,2013-01-25 21:25:00,
2013-01-25 16:30:00,19.3,15.3,30.00,SSW,202,3.5,3.5,84,0.00,CLR,,0.00,WeatherDisplay:10.37,2013-01-25 21:30:00,
2013-01-25 16:35:00,19.1,15.1,30.00,SSW,200,4.6,4.6,84,0.00,CLR,,0.00,WeatherDisplay:10.37,2013-01-25 21:35:00,
2013-01-25 16:40:00,19.0,15.0,30.00,SSW,212,4.6,4.6,84,0.00,CLR,,0.00,WeatherDisplay:10.37,2013-01-25 21:40:00,
2013-01-25 16:45:00,19.0,15.2,30.00,SSW,211,0.0,0.0,85,0.00,CLR,,0.00,WeatherDisplay:10.37,2013-01-25 21:45:00,
2013-01-25 16:50:00,19.1,15.3,30.00,SSW,213,3.5,3.5,85,0.00,CLR,,0.00,WeatherDisplay:10.37,2013-01-25 21:50:00,
2013-01-25 16:55:00,19.0,15.2,30.00,SSW,213,4.0,4.0,85,0.00,CLR,,0.00,WeatherDisplay:10.37,2013-01-25 21:55:00,
2013-01-25 17:00:00,19.0,15.0,30.00,SSW,209,4.6,4.6,84,0.00,CLR,,0.00,WeatherDisplay:10.37,2013-01-25 22:00:00,
2013-01-25 17:05:00,18.9,15.1,30.00,SSW,198,4.0,4.0,85,0.00,CLR,,0.00,WeatherDisplay:10.37,2013-01-25 22:05:00,
2013-01-25 17:10:00,18.9,15.1,30.00,SW,229,3.5,0.0,85,0.00,CLR,,0.00,WeatherDisplay:10.37,2013-01-25 22:10:00,
2013-01-25 17:15:00,18.8,15.0,30.00,SW,228,0.0,0.0,85,0.00,CLR,,0.00,WeatherDisplay:10.37,2013-01-25 22:15:00,
2013-01-25 17:20:00,18.8,15.3,30.00,SW,228,0.0,0.7,86,0.00,CLR,,0.00,WeatherDisplay:10.37,2013-01-25 22:20:00,
2013-01-25 17:25:00,18.8,15.3,30.00,SW,223,3.0,3.0,86,0.00,CLR,,0.00,WeatherDisplay:10.37,2013-01-25 22:25:00,
2013-01-25 17:30:00,18.6,15.1,30.00,SSW,197,3.5,3.5,86,0.00,CLR,,0.00,WeatherDisplay:10.37,2013-01-25 22:30:00,
2013-01-25 17:35:00,18.6,15.1,30.00,SSW,196,0.0,0.0,86,0.00,CLR,,0.00,WeatherDisplay:10.37,2013-01-25 22:35:00,
2013-01-25 17:40:00,18.6,15.4,30.01,SSW,198,2.3,2.3,87,0.00,CLR,,0.00,WeatherDisplay:10.37,2013-01-25 22:40:00,
2013-01-25 17:45:00,18.5,15.3,30.01,SW,236,0.0,0.0,87,0.00,CLR,,0.00,WeatherDisplay:10.37,2013-01-25 22:45:00,
2013-01-25 17:50:00,18.4,15.2,30.01,SW,235,0.0,0.0,87,0.00,CLR,,0.00,WeatherDisplay:10.37,2013-01-25 22:50:00,
2013-01-25 17:55:00,18.4,15.2,30.01,SW,234,0.0,0.0,87,0.00,CLR,,0.00,WeatherDisplay:10.37,2013-01-25 22:55:00,
2013-01-25 18:00:00,18.4,15.2,30.01,SW,219,0.0,0.0,87,0.00,CLR,,0.00,WeatherDisplay:10.37,2013-01-25 23:00:00,
2013-01-25 18:06:00,18.4,15.4,30.01,SW,219,0.0,0.0,88,0.00,CLR,,0.00,WeatherDisplay:10.37,2013-01-25 23:06:00,
2013-01-25 18:11:00,18.3,15.3,30.01,SW,220,1.1,0.0,88,0.00,CLR,,0.00,WeatherDisplay:10.37,2013-01-25 23:11:00,
2013-01-25 18:16:00,18.3,15.3,30.01,SW,220,0.0,0.3,88,0.00,CLR,,0.00,WeatherDisplay:10.37,2013-01-25 23:16:00,
2013-01-25 18:21:00,18.2,15.2,30.01,SW,219,3.5,3.5,88,0.00,CLR,,0.00,WeatherDisplay:10.37,2013-01-25 23:21:00,
2013-01-25 18:26:00,18.2,15.5,30.01,SW,218,0.0,0.1,89,0.00,CLR,,0.00,WeatherDisplay:10.37,2013-01-25 23:26:00,
2013-01-25 18:31:00,18.2,15.5,30.01,SW,218,0.0,0.0,89,0.00,CLR,,0.00,WeatherDisplay:10.37,2013-01-25 23:31:00,
2013-01-25 18:36:00,18.2,15.5,30.01,SW,218,2.3,2.3,89,0.00,CLR,,0.00,WeatherDisplay:10.37,2013-01-25 23:36:00,
2013-01-25 18:41:00,18.1,15.4,30.01,SW,218,2.3,2.3,89,0.00,CLR,,0.00,WeatherDisplay:10.37,2013-01-25 23:41:00,
2013-01-25 18:46:00,18.1,15.4,30.01,SW,218,0.0,0.0,89,0.00,CLR,,0.00,WeatherDisplay:10.37,2013-01-25 23:46:00,
2013-01-25 18:51:00,18.1,15.7,30.01,SW,218,0.0,0.0,90,0.00,CLR,,0.00,WeatherDisplay:10.37,2013-01-25 23:51:00,
2013-01-25 18:56:00,18.1,15.7,30.01,SW,218,0.0,0.0,90,0.00,CLR,,0.00,WeatherDisplay:10.37,2013-01-25 23:56:00,
2013-01-25 19:01:00,18.0,15.6,30.01,SW,218,1.1,1.1,90,0.00,CLR,,0.00,WeatherDisplay:10.37,2013-01-26 00:01:00,
2013-01-25 19:06:00,18.0,15.6,30.01,SW,218,0.0,0.0,90,0.00,CLR,,0.00,WeatherDisplay:10.37,2013-01-26 00:06:00,
2013-01-25 19:11:00,18.0,15.6,30.01,SW,218,0.0,0.0,90,0.00,CLR,,0.00,WeatherDisplay:10.37,2013-01-26 00:11:00,
2013-01-25 19:16:00,18.0,15.6,30.01,SW,218,0.0,0.0,90,0.00,CLR,,0.00,WeatherDisplay:10.37,2013-01-26 00:16:00,
2013-01-25 19:21:00,18.0,15.6,30.01,SW,218,1.0,0.0,90,0.00,CLR,,0.00,WeatherDisplay:10.37,2013-01-26 00:21:00,
2013-01-25 19:26:00,18.0,15.6,30.01,SW,218,0.0,0.0,90,0.00,CLR,,0.00,WeatherDisplay:10.37,2013-01-26 00:26:00,
2013-01-25 19:31:00,17.9,15.7,30.01,SW,218,1.0,0.0,91,0.00,CLR,,0.00,WeatherDisplay:10.37,2013-01-26 00:31:00,
2013-01-25 19:36:00,17.9,15.7,30.01,SW,217,0.0,0.0,91,0.00,CLR,,0.00,WeatherDisplay:10.37,2013-01-26 00:36:00,
2013-01-25 19:41:00,17.8,15.6,30.01,SW,215,3.5,3.5,91,0.00,CLR,,0.00,WeatherDisplay:10.37,2013-01-26 00:41:00,
2013-01-25 19:46:00,17.8,15.6,30.01,SW,215,1.1,1.1,91,0.00,CLR,,0.00,WeatherDisplay:10.37,2013-01-26 00:46:00,
2013-01-25 19:51:00,17.7,15.5,30.01,SW,215,0.0,0.0,91,0.00,CLR,,0.00,WeatherDisplay:10.37,2013-01-26 00:51:00,
2013-01-25 19:56:00,17.7,15.5,30.01,SW,215,1.1,1.1,91,0.00,CLR,,0.00,WeatherDisplay:10.37,2013-01-26 00:56:00,
2013-01-25 20:01:00,17.7,15.5,30.01,SW,215,0.0,0.0,91,0.00,CLR,,0.00,WeatherDisplay:10.37,2013-01-26 01:01:00,
2013-01-25 20:06:00,17.7,15.5,30.01,SW,215,2.3,2.3,91,0.00,CLR,,0.00,WeatherDisplay:10.37,2013-01-26 01:06:00,
2013-01-25 20:11:00,17.7,15.3,30.01,SW,215,0.0,0.0,90,0.00,CLR,,0.00,WeatherDisplay:10.37,2013-01-26 01:11:00,
2013-01-25 20:16:00,17.6,15.2,30.01,SW,215,0.0,0.0,90,0.00,CLR,,0.00,WeatherDisplay:10.37,2013-01-26 01:16:00,
2013-01-25 20:21:00,17.6,15.2,30.01,SW,215,0.0,0.0,90,0.00,CLR,,0.00,WeatherDisplay:10.37,2013-01-26 01:21:00,
2013-01-25 20:26:00,17.5,15.1,30.01,SW,215,1.1,1.1,90,0.00,CLR,,0.00,WeatherDisplay:10.37,2013-01-26 01:26:00,
2013-01-25 20:31:00,17.5,15.3,30.01,SW,215,1.1,0.0,91,0.00,CLR,,0.00,WeatherDisplay:10.37,2013-01-26 01:31:00,
2013-01-25 20:36:00,17.3,14.9,30.01,SW,215,0.0,0.0,90,0.00,CLR,,0.00,WeatherDisplay:10.37,2013-01-26 01:36:00,
2013-01-25 20:41:00,17.3,15.1,30.01,SW,215,0.0,0.0,91,0.00,CLR,,0.00,WeatherDisplay:10.37,2013-01-26 01:41:00,
2013-01-25 20:46:00,17.2,15.0,30.01,SW,215,0.0,0.0,91,0.00,CLR,,0.00,WeatherDisplay:10.37,2013-01-26 01:46:00,
2013-01-25 20:51:00,17.1,14.9,30.01,SW,215,0.0,0.0,91,0.00,CLR,,0.00,WeatherDisplay:10.37,2013-01-26 01:51:00,
2013-01-25 20:56:00,17.1,14.9,30.01,SW,215,0.0,0.0,91,0.00,CLR,,0.00,WeatherDisplay:10.37,2013-01-26 01:56:00,
2013-01-25 21:01:00,17.0,14.8,30.01,SW,215,1.1,1.1,91,0.00,CLR,,0.00,WeatherDisplay:10.37,2013-01-26 02:01:00,
2013-01-25 21:06:00,16.9,14.7,30.01,SW,215,0.0,0.0,91,0.00,CLR,,0.00,WeatherDisplay:10.37,2013-01-26 02:06:00,
2013-01-25 21:11:00,16.8,14.6,30.01,SW,215,0.0,0.0,91,0.00,CLR,,0.00,WeatherDisplay:10.37,2013-01-26 02:11:00,
2013-01-25 21:16:00,16.8,14.6,30.01,SW,215,1.1,0.0,91,0.00,CLR,,0.00,WeatherDisplay:10.37,2013-01-26 02:16:00,
2013-01-25 21:21:00,16.7,14.5,30.01,SW,215,0.0,0.0,91,0.00,CLR,,0.00,WeatherDisplay:10.37,2013-01-26 02:21:00,
2013-01-25 21:26:00,16.8,14.6,30.01,SW,215,0.0,0.0,91,0.00,CLR,,0.00,WeatherDisplay:10.37,2013-01-26 02:26:00,
2013-01-25 21:31:00,16.8,14.6,30.01,SW,215,0.0,0.0,91,0.00,CLR,,0.00,WeatherDisplay:10.37,2013-01-26 02:31:00,
2013-01-25 21:36:00,16.8,14.6,30.01,SW,215,0.0,0.0,91,0.00,CLR,,0.00,WeatherDisplay:10.37,2013-01-26 02:36:00,
2013-01-25 21:41:00,16.7,14.5,30.01,SW,215,0.0,0.0,91,0.00,CLR,,0.00,WeatherDisplay:10.37,2013-01-26 02:41:00,
2013-01-25 21:46:00,16.7,14.5,30.01,SW,215,0.0,0.0,91,0.00,CLR,,0.00,WeatherDisplay:10.37,2013-01-26 02:46:00,
2013-01-25 21:51:00,16.7,14.5,30.01,SW,215,0.0,0.0,91,0.00,CLR,,0.00,WeatherDisplay:10.37,2013-01-26 02:51:00,
2013-01-25 21:56:00,16.8,14.6,30.01,SW,215,0.0,0.0,91,0.00,CLR,,0.00,WeatherDisplay:10.37,2013-01-26 02:56:00,
2013-01-25 22:01:00,16.7,14.5,30.01,SW,215,0.0,0.0,91,0.00,CLR,,0.00,WeatherDisplay:10.37,2013-01-26 03:01:00,
2013-01-25 22:06:00,16.7,14.5,30.02,SW,215,0.0,0.0,91,0.00,CLR,,0.00,WeatherDisplay:10.37,2013-01-26 03:06:00,
2013-01-25 22:11:00,16.6,14.4,30.02,SW,215,0.0,0.0,91,0.00,CLR,,0.00,WeatherDisplay:10.37,2013-01-26 03:11:00,
2013-01-25 22:16:00,16.6,14.4,30.02,SW,215,0.0,0.0,91,0.00,CLR,,0.00,WeatherDisplay:10.37,2013-01-26 03:16:00,
2013-01-25 22:21:00,16.6,14.4,30.02,SW,215,0.0,0.0,91,0.00,CLR,,0.00,WeatherDisplay:10.37,2013-01-26 03:21:00,
2013-01-25 22:26:00,16.5,14.3,30.02,SW,215,0.0,0.0,91,0.00,CLR,,0.00,WeatherDisplay:10.37,2013-01-26 03:26:00,
2013-01-25 22:31:00,16.3,14.1,30.02,SW,215,0.0,0.0,91,0.00,CLR,,0.00,WeatherDisplay:10.37,2013-01-26 03:31:00,
2013-01-25 22:36:00,16.2,14.0,30.02,SW,215,0.0,0.0,91,0.00,CLR,,0.00,WeatherDisplay:10.37,2013-01-26 03:36:00,
2013-01-25 22:41:00,16.2,14.0,30.02,SW,215,0.0,0.0,91,0.00,CLR,,0.00,WeatherDisplay:10.37,2013-01-26 03:41:00,
2013-01-25 22:46:00,16.1,13.9,30.02,SW,215,0.0,0.0,91,0.00,CLR,,0.00,WeatherDisplay:10.37,2013-01-26 03:46:00,
2013-01-25 22:51:00,16.0,13.8,30.02,SW,215,0.0,0.0,91,0.00,CLR,,0.00,WeatherDisplay:10.37,2013-01-26 03:51:00,
2013-01-25 22:56:00,16.0,13.8,30.02,SW,215,0.0,0.0,91,0.00,CLR,,0.00,WeatherDisplay:10.37,2013-01-26 03:56:00,
2013-01-25 23:01:00,15.9,13.7,30.02,SW,215,0.0,0.0,91,0.00,CLR,,0.00,WeatherDisplay:10.37,2013-01-26 04:01:00,
2013-01-25 23:06:00,15.9,13.7,30.02,SW,215,0.0,0.0,91,0.00,CLR,,0.00,WeatherDisplay:10.37,2013-01-26 04:06:00,
2013-01-25 23:11:00,16.0,13.8,30.02,SW,215,0.0,0.0,91,0.00,CLR,,0.00,WeatherDisplay:10.37,2013-01-26 04:11:00,
2013-01-25 23:16:00,16.0,13.8,30.02,SW,215,0.0,0.0,91,0.00,CLR,,0.00,WeatherDisplay:10.37,2013-01-26 04:16:00,
2013-01-25 23:21:00,16.1,13.9,30.02,SW,215,0.0,0.0,91,0.00,CLR,,0.00,WeatherDisplay:10.37,2013-01-26 04:21:00,
2013-01-25 23:26:00,16.0,13.8,30.02,SW,215,0.0,0.0,91,0.00,CLR,,0.00,WeatherDisplay:10.37,2013-01-26 04:26:00,
2013-01-25 23:31:00,16.0,13.8,30.03,SW,215,0.0,0.0,91,0.00,CLR,,0.00,WeatherDisplay:10.37,2013-01-26 04:31:00,
2013-01-25 23:36:00,16.0,13.8,30.02,SW,215,0.0,0.0,91,0.00,CLR,,0.00,WeatherDisplay:10.37,2013-01-26 04:36:00,
2013-01-25 23:41:00,16.0,13.8,30.02,SW,215,0.0,0.0,91,0.00,CLR,,0.00,WeatherDisplay:10.37,2013-01-26 04:41:00,
2013-01-25 23:46:00,16.0,13.8,30.03,SW,215,0.0,0.0,91,0.00,CLR,,0.00,WeatherDisplay:10.37,2013-01-26 04:46:00,
2013-01-25 23:51:00,16.0,13.8,30.03,SW,215,0.0,0.0,91,0.00,CLR,,0.00,WeatherDisplay:10.37,2013-01-26 04:51:00,
2013-01-25 23:56:00,15.9,13.7,30.04,SW,215,0.0,0.0,91,0.00,CLR,,0.00,WeatherDisplay:10.37,2013-01-26 04:56:00,